createdAt,value
2018-09-05T00:01:18.712Z,60.90
2018-09-05T00:03:47.569Z,61.00
2018-09-05T00:06:16.630Z,61.00
2018-09-05T00:08:45.754Z,61.00
2018-09-05T00:11:14.386Z,61.00
2018-09-05T00:13:42.906Z,61.00
2018-09-05T00:16:11.525Z,61.10
2018-09-05T00:18:40.538Z,61.10
2018-09-05T00:21:09.600Z,61.10
2018-09-05T00:23:38.710Z,60.90
2018-09-05T00:26:07.493Z,60.90
2018-09-05T00:28:36.490Z,61.00
2018-09-05T00:31:05.183Z,61.00
2018-09-05T00:33:34.574Z,61.30
2018-09-05T00:36:03.454Z,61.50
2018-09-05T00:38:32.167Z,61.50
2018-09-05T00:41:01.147Z,61.50
2018-09-05T00:43:29.679Z,61.50
2018-09-05T00:45:58.273Z,61.60
2018-09-05T00:48:27.041Z,61.70
2018-09-05T00:50:56.039Z,61.80
2018-09-05T00:53:25.346Z,61.80
2018-09-05T00:55:54.260Z,61.50
2018-09-05T00:58:22.891Z,61.70
2018-09-05T01:00:51.532Z,61.60
2018-09-05T01:03:20.389Z,61.50
2018-09-05T01:05:49.017Z,61.50
2018-09-05T01:08:17.722Z,61.60
2018-09-05T01:10:46.672Z,61.60
2018-09-05T01:13:15.371Z,61.50
2018-09-05T01:15:43.884Z,61.40
2018-09-05T01:18:12.431Z,61.30
2018-09-05T01:20:41.993Z,61.30
2018-09-05T01:23:10.598Z,61.50
2018-09-05T01:25:39.936Z,61.60
2018-09-05T01:28:08.468Z,61.70
2018-09-05T01:30:37.033Z,62.00
2018-09-05T01:33:06.666Z,62.00
2018-09-05T01:35:36.495Z,61.90
2018-09-05T01:38:05.591Z,61.90
2018-09-05T01:40:34.258Z,61.90
2018-09-05T01:43:03.342Z,61.90
2018-09-05T01:45:31.868Z,62.00
2018-09-05T01:48:00.543Z,61.90
2018-09-05T01:50:34.328Z,61.90
2018-09-05T01:53:02.962Z,61.80
2018-09-05T01:55:33.697Z,62.10
2018-09-05T01:58:03.912Z,62.30
2018-09-05T02:00:35.436Z,62.50
2018-09-05T02:03:06.666Z,63.30
2018-09-05T02:05:35.477Z,62.60
2018-09-05T02:08:04.460Z,62.60
2018-09-05T02:10:33.469Z,63.70
2018-09-05T02:13:02.839Z,62.90
2018-09-05T02:15:31.529Z,63.00
2018-09-05T02:18:00.370Z,63.00
2018-09-05T02:20:29.208Z,63.00
2018-09-05T02:22:58.329Z,62.90
2018-09-05T02:25:26.914Z,62.90
2018-09-05T02:28:02.068Z,63.00
2018-09-05T02:30:30.638Z,63.00
2018-09-05T02:32:59.227Z,63.00
2018-09-05T02:35:27.772Z,63.00
2018-09-05T02:37:56.812Z,63.10
2018-09-05T02:40:25.599Z,63.10
2018-09-05T02:42:55.212Z,63.20
2018-09-05T02:45:23.771Z,63.30
2018-09-05T02:47:52.990Z,63.40
2018-09-05T02:50:21.595Z,63.20
2018-09-05T02:52:50.366Z,63.30
2018-09-05T02:55:24.223Z,63.30
2018-09-05T02:57:52.902Z,63.30
2018-09-05T03:00:21.844Z,63.20
2018-09-05T03:02:50.378Z,63.30
2018-09-05T03:05:19.454Z,63.40
2018-09-05T03:07:48.024Z,63.60
2018-09-05T03:10:16.716Z,63.50
2018-09-05T03:12:45.289Z,63.30
2018-09-05T03:15:13.900Z,63.40
2018-09-05T03:17:42.506Z,63.40
2018-09-05T03:20:11.054Z,63.70
2018-09-05T03:22:40.409Z,63.80
2018-09-05T03:25:09.546Z,64.00
2018-09-05T03:27:38.569Z,64.00
2018-09-05T03:30:07.124Z,63.90
2018-09-05T03:32:36.274Z,64.10
2018-09-05T03:35:05.191Z,64.30
2018-09-05T03:37:33.929Z,64.30
2018-09-05T03:40:02.710Z,64.30
2018-09-05T03:42:31.267Z,64.60
2018-09-05T03:44:59.895Z,64.60
2018-09-05T03:47:29.002Z,64.60
2018-09-05T03:49:57.961Z,64.60
2018-09-05T03:52:26.585Z,64.60
2018-09-05T03:54:55.868Z,64.40
2018-09-05T03:57:25.630Z,64.50
2018-09-05T03:59:54.248Z,64.40
2018-09-05T04:02:22.843Z,64.60
2018-09-05T04:04:51.798Z,64.50
2018-09-05T04:07:20.490Z,64.60
2018-09-05T04:09:49.122Z,64.60
2018-09-05T04:12:18.772Z,64.70
2018-09-05T04:14:47.349Z,64.70
2018-09-05T04:17:15.976Z,64.70
2018-09-05T04:19:45.129Z,64.90
2018-09-05T04:22:13.983Z,64.90
2018-09-05T04:24:43.049Z,64.90
2018-09-05T04:27:11.696Z,64.90
2018-09-05T04:29:41.032Z,65.00
2018-09-05T04:32:09.615Z,65.40
2018-09-05T04:34:39.445Z,65.40
2018-09-05T04:37:08.142Z,65.30
2018-09-05T04:39:37.649Z,65.40
2018-09-05T04:42:06.362Z,65.30
2018-09-05T04:44:35.105Z,65.10
2018-09-05T04:47:03.699Z,65.10
2018-09-05T04:49:32.906Z,65.00
2018-09-05T04:52:02.921Z,65.30
2018-09-05T04:54:33.119Z,65.30
2018-09-05T04:57:02.285Z,65.40
2018-09-05T04:59:31.609Z,65.30
2018-09-05T05:02:00.683Z,65.80
2018-09-05T05:04:32.297Z,66.20
2018-09-05T05:07:02.682Z,66.40
2018-09-05T05:09:31.379Z,66.50
2018-09-05T05:12:00.343Z,66.70
2018-09-05T05:14:28.866Z,66.50
2018-09-05T05:16:57.463Z,66.60
2018-09-05T05:19:26.217Z,66.60
2018-09-05T05:21:54.789Z,66.70
2018-09-05T05:24:23.405Z,66.00
2018-09-05T05:26:52.150Z,67.00
2018-09-05T05:29:21.462Z,67.60
2018-09-05T05:31:50.085Z,67.00
2018-09-05T05:34:19.045Z,67.10
2018-09-05T05:36:47.973Z,67.10
2018-09-05T05:39:16.475Z,67.20
2018-09-05T05:41:45.289Z,67.30
2018-09-05T05:44:13.871Z,67.30
2018-09-05T05:46:42.498Z,67.30
2018-09-05T05:49:11.169Z,67.50
2018-09-05T05:51:40.557Z,67.30
2018-09-05T05:54:09.183Z,67.30
2018-09-05T05:56:38.184Z,67.40
2018-09-05T05:59:06.774Z,67.60
2018-09-05T06:01:35.445Z,67.60
2018-09-05T06:04:04.197Z,67.70
2018-09-05T06:06:33.499Z,67.60
2018-09-05T06:09:02.100Z,67.50
2018-09-05T06:11:30.755Z,67.20
2018-09-05T06:13:59.330Z,67.10
2018-09-05T06:16:27.880Z,67.10
2018-09-05T06:18:56.738Z,67.30
2018-09-05T06:21:25.302Z,67.50
2018-09-05T06:23:54.007Z,67.60
2018-09-05T06:26:22.683Z,67.70
2018-09-05T06:28:51.284Z,67.50
2018-09-05T06:31:20.441Z,67.30
2018-09-05T06:33:48.747Z,67.60
2018-09-05T06:36:17.285Z,67.40
2018-09-05T06:38:47.043Z,67.10
2018-09-05T06:41:15.749Z,67.40
2018-09-05T06:43:44.312Z,67.30
2018-09-05T06:46:12.948Z,67.00
2018-09-05T06:48:41.578Z,66.80
2018-09-05T06:51:10.066Z,66.80
2018-09-05T06:53:39.780Z,66.70
2018-09-05T06:56:08.758Z,66.40
2018-09-05T06:58:37.759Z,66.40
2018-09-05T07:01:06.809Z,66.50
2018-09-05T07:03:35.721Z,66.40
2018-09-05T07:06:04.445Z,66.40
2018-09-05T07:08:33.072Z,66.30
2018-09-05T07:11:02.381Z,66.60
2018-09-05T07:13:31.014Z,66.80
2018-09-05T07:15:59.685Z,66.90
2018-09-05T07:18:28.385Z,66.80
2018-09-05T07:21:05.681Z,67.20
2018-09-05T07:23:25.950Z,67.30
2018-09-05T07:25:54.797Z,67.30
2018-09-05T07:28:23.440Z,66.70
2018-09-05T07:30:52.105Z,67.30
2018-09-05T07:33:20.991Z,67.20
2018-09-05T07:35:50.065Z,67.00
2018-09-05T07:38:18.635Z,66.90
2018-09-05T07:40:47.251Z,66.10
2018-09-05T07:43:16.347Z,65.50
2018-09-05T07:45:45.039Z,65.40
2018-09-05T07:48:14.430Z,65.50
2018-09-05T07:50:43.063Z,65.10
2018-09-05T07:53:12.016Z,64.90
2018-09-05T07:55:40.759Z,64.20
2018-09-05T07:58:09.397Z,63.70
2018-09-05T08:00:38.700Z,63.40
2018-09-05T08:03:07.372Z,62.90
2018-09-05T08:05:36.166Z,62.90
2018-09-05T08:08:04.924Z,62.70
2018-09-05T08:10:33.496Z,62.50
2018-09-05T08:13:02.151Z,62.90
2018-09-05T08:15:30.931Z,63.10
2018-09-05T08:17:59.529Z,63.00
2018-09-05T08:20:28.078Z,63.00
2018-09-05T08:22:56.816Z,63.10
2018-09-05T08:25:25.400Z,62.90
2018-09-05T08:27:54.479Z,63.00
2018-09-05T08:30:23.066Z,62.50
2018-09-05T08:32:51.603Z,62.50
2018-09-05T08:35:20.634Z,62.50
2018-09-05T08:37:48.990Z,62.60
2018-09-05T08:40:17.501Z,62.50
2018-09-05T08:42:46.208Z,62.10
2018-09-05T08:45:14.976Z,62.20
2018-09-05T08:47:43.565Z,62.20
2018-09-05T08:50:12.236Z,61.30
2018-09-05T08:52:40.947Z,60.80
2018-09-05T08:55:09.766Z,60.30
2018-09-05T08:57:39.316Z,59.70
2018-09-05T09:00:08.069Z,59.70
2018-09-05T09:02:36.657Z,58.80
2018-09-05T09:05:06.737Z,59.00
2018-09-05T09:07:35.582Z,59.20
2018-09-05T09:10:04.581Z,58.50
2018-09-05T09:12:33.824Z,57.70
2018-09-05T09:15:02.589Z,57.20
2018-09-05T09:17:31.492Z,57.00
2018-09-05T09:20:00.062Z,56.40
2018-09-05T09:22:28.605Z,56.50
2018-09-05T09:24:57.149Z,56.60
2018-09-05T09:27:26.240Z,55.90
2018-09-05T09:29:54.823Z,56.00
2018-09-05T09:32:23.369Z,56.00
2018-09-05T09:34:52.161Z,56.10
2018-09-05T09:37:20.692Z,55.60
2018-09-05T09:39:49.837Z,54.90
2018-09-05T09:42:18.331Z,54.40
2018-09-05T09:44:46.916Z,53.70
2018-09-05T09:47:15.667Z,53.80
2018-09-05T09:49:44.257Z,54.50
2018-09-05T09:52:18.242Z,54.50
2018-09-05T09:54:46.811Z,54.20
2018-09-05T09:57:15.601Z,53.90
2018-09-05T09:59:44.216Z,53.50
2018-09-05T10:02:17.925Z,53.90
2018-09-05T10:04:51.770Z,52.90
2018-09-05T10:07:25.712Z,51.90
2018-09-05T10:10:00.709Z,52.10
2018-09-05T10:13:35.152Z,52.10
2018-09-05T10:16:09.151Z,51.20
2018-09-05T10:18:39.899Z,51.40
2018-09-05T10:21:09.015Z,52.30
2018-09-05T10:23:38.121Z,52.20
2018-09-05T10:26:06.808Z,50.70
2018-09-05T10:28:35.496Z,50.20
2018-09-05T10:31:04.108Z,50.10
2018-09-05T10:33:33.053Z,50.20
2018-09-05T10:36:02.119Z,49.70
2018-09-05T10:38:30.852Z,49.90
2018-09-05T10:40:59.540Z,48.70
2018-09-05T10:43:28.087Z,49.20
2018-09-05T10:45:56.918Z,49.30
2018-09-05T10:48:25.493Z,48.80
2018-09-05T10:50:54.092Z,48.20
2018-09-05T10:53:22.656Z,48.70
2018-09-05T10:55:51.197Z,48.30
2018-09-05T10:58:19.644Z,47.00
2018-09-05T11:00:48.170Z,47.60
2018-09-05T11:03:16.713Z,48.00
2018-09-05T11:05:45.400Z,48.70
2018-09-05T11:08:13.962Z,47.60
2018-09-05T11:10:42.565Z,47.30
2018-09-05T11:13:11.054Z,47.40
2018-09-05T11:15:40.100Z,47.60
2018-09-05T11:18:08.676Z,46.40
2018-09-05T11:20:37.329Z,45.40
2018-09-05T11:23:06.109Z,46.00
2018-09-05T11:25:35.023Z,44.80
2018-09-05T11:28:04.155Z,45.00
2018-09-05T11:30:32.833Z,45.00
2018-09-05T11:33:01.405Z,44.50
2018-09-05T11:35:29.974Z,44.70
2018-09-05T11:37:58.866Z,44.60
2018-09-05T11:40:27.816Z,45.10
2018-09-05T11:42:56.346Z,43.70
2018-09-05T11:45:24.927Z,43.90
2018-09-05T11:47:53.591Z,44.20
2018-09-05T11:50:22.203Z,43.50
2018-09-05T11:52:50.938Z,43.50
2018-09-05T11:55:19.513Z,43.20
2018-09-05T11:57:48.021Z,43.10
2018-09-05T12:00:16.600Z,43.00
2018-09-05T12:02:45.111Z,42.70
2018-09-05T12:05:13.731Z,42.20
2018-09-05T12:07:42.359Z,42.30
2018-09-05T12:10:10.955Z,42.90
2018-09-05T12:12:39.940Z,42.90
2018-09-05T12:15:08.877Z,41.90
2018-09-05T12:17:38.351Z,41.00
2018-09-05T12:20:06.910Z,40.90
2018-09-05T12:22:35.545Z,41.40
2018-09-05T12:25:04.280Z,41.70
2018-09-05T12:27:32.871Z,41.30
2018-09-05T12:30:01.385Z,41.10
2018-09-05T12:32:30.628Z,41.00
2018-09-05T12:35:13.431Z,40.30
2018-09-05T12:37:42.444Z,40.70
2018-09-05T12:40:10.953Z,40.00
2018-09-05T12:42:40.452Z,37.90
2018-09-05T12:45:09.647Z,38.50
2018-09-05T12:47:38.257Z,38.90
2018-09-05T12:50:06.958Z,39.00
2018-09-05T12:52:36.261Z,38.80
2018-09-05T12:55:04.861Z,38.80
2018-09-05T12:57:35.834Z,38.90
2018-09-05T13:00:04.432Z,38.70
2018-09-05T13:02:33.287Z,38.60
2018-09-05T13:05:01.895Z,38.90
2018-09-05T13:07:31.176Z,38.30
2018-09-05T13:09:59.704Z,37.40
2018-09-05T13:12:28.600Z,37.20
2018-09-05T13:14:57.613Z,37.70
2018-09-05T13:17:26.480Z,37.40
2018-09-05T13:19:56.581Z,37.40
2018-09-05T13:22:25.442Z,36.40
2018-09-05T13:24:53.938Z,38.30
2018-09-05T13:27:22.568Z,38.00
2018-09-05T13:29:51.241Z,38.10
2018-09-05T13:32:21.249Z,37.80
2018-09-05T13:34:49.924Z,38.20
2018-09-05T13:37:18.709Z,38.30
2018-09-05T13:39:51.074Z,38.40
2018-09-05T13:42:20.267Z,38.90
2018-09-05T13:44:49.810Z,38.70
2018-09-05T13:47:18.564Z,38.70
2018-09-05T13:49:47.351Z,37.90
2018-09-05T13:52:16.466Z,37.90
2018-09-05T13:54:45.123Z,37.00
2018-09-05T13:57:13.755Z,38.10
2018-09-05T13:59:42.733Z,37.90
2018-09-05T14:02:11.629Z,37.00
2018-09-05T14:04:40.593Z,37.20
2018-09-05T14:07:09.098Z,38.20
2018-09-05T14:09:38.567Z,39.30
2018-09-05T14:12:07.123Z,38.10
2018-09-05T14:14:36.162Z,38.10
2018-09-05T14:17:05.036Z,38.10
2018-09-05T14:19:34.094Z,38.20
2018-09-05T14:22:03.288Z,38.40
2018-09-05T14:24:32.766Z,38.40
2018-09-05T14:27:01.515Z,38.00
2018-09-05T14:29:30.091Z,37.40
2018-09-05T14:31:58.751Z,37.20
2018-09-05T14:34:27.460Z,37.50
2018-09-05T14:36:56.374Z,37.00
2018-09-05T14:39:25.178Z,37.40
2018-09-05T14:41:54.236Z,37.90
2018-09-05T14:44:23.403Z,38.00
2018-09-05T14:46:52.257Z,37.10
2018-09-05T14:49:21.204Z,37.50
2018-09-05T14:51:50.749Z,36.40
2018-09-05T14:54:19.857Z,36.10
2018-09-05T14:56:48.548Z,36.20
2018-09-05T14:59:18.033Z,36.30
2018-09-05T15:01:46.768Z,35.70
2018-09-05T15:04:15.319Z,35.80
2018-09-05T15:06:43.910Z,36.10
2018-09-05T15:09:13.280Z,35.60
2018-09-05T15:11:42.198Z,35.40
2018-09-05T15:14:11.299Z,35.20
2018-09-05T15:16:40.070Z,35.50
2018-09-05T15:19:08.584Z,35.60
2018-09-05T15:21:37.267Z,35.30
2018-09-05T15:24:05.914Z,35.60
2018-09-05T15:26:34.609Z,35.50
2018-09-05T15:29:03.516Z,34.40
2018-09-05T15:31:32.052Z,34.70
2018-09-05T15:34:00.887Z,35.00
2018-09-05T15:36:29.872Z,35.40
2018-09-05T15:38:58.408Z,35.30
2018-09-05T15:41:27.152Z,35.70
2018-09-05T15:43:55.724Z,35.20
2018-09-05T15:46:24.274Z,34.70
2018-09-05T15:48:53.156Z,34.90
2018-09-05T15:51:22.568Z,34.80
2018-09-05T15:53:51.290Z,35.20
2018-09-05T15:56:19.879Z,35.50
2018-09-05T15:58:50.420Z,35.30
2018-09-05T16:01:18.987Z,36.00
2018-09-05T16:03:47.462Z,35.20
2018-09-05T16:06:16.078Z,35.10
2018-09-05T16:08:44.965Z,35.20
2018-09-05T16:11:13.559Z,35.10
2018-09-05T16:13:43.236Z,35.30
2018-09-05T16:16:12.052Z,35.20
2018-09-05T16:18:44.007Z,34.80
2018-09-05T16:21:13.859Z,34.90
2018-09-05T16:23:46.709Z,34.90
2018-09-05T16:26:16.433Z,34.50
2018-09-05T16:28:46.351Z,35.20
2018-09-05T16:31:18.956Z,35.00
2018-09-05T16:33:50.929Z,34.40
2018-09-05T16:36:25.985Z,34.90
2018-09-05T16:38:55.800Z,35.00
2018-09-05T16:41:25.567Z,34.80
2018-09-05T16:43:55.123Z,34.70
2018-09-05T16:46:24.969Z,34.50
2018-09-05T16:48:54.657Z,34.60
2018-09-05T16:51:25.441Z,35.00
2018-09-05T16:53:54.755Z,34.90
2018-09-05T16:56:23.427Z,35.30
2018-09-05T16:58:52.257Z,35.00
2018-09-05T17:01:21.279Z,35.30
2018-09-05T17:03:50.116Z,35.60
2018-09-05T17:06:18.971Z,35.50
2018-09-05T17:08:47.566Z,35.90
2018-09-05T17:11:16.336Z,36.80
2018-09-05T17:13:44.904Z,36.40
2018-09-05T17:16:13.605Z,36.50
2018-09-05T17:18:44.904Z,36.20
2018-09-05T17:21:16.057Z,36.10
2018-09-05T17:23:46.950Z,36.40
2018-09-05T17:26:18.419Z,36.60
2018-09-05T17:28:47.129Z,36.80
2018-09-05T17:31:16.099Z,37.10
2018-09-05T17:33:44.807Z,37.40
2018-09-05T17:36:13.820Z,37.50
2018-09-05T17:38:42.995Z,37.60
2018-09-05T17:42:15.840Z,38.00
2018-09-05T17:44:46.129Z,37.90
2018-09-05T17:47:14.775Z,38.30
2018-09-05T17:49:43.875Z,38.60
2018-09-05T17:52:14.328Z,38.90
2018-09-05T17:54:43.217Z,38.90
2018-09-05T17:57:11.836Z,38.90
2018-09-05T17:59:40.844Z,39.00
2018-09-05T18:02:09.399Z,39.30
2018-09-05T18:04:38.341Z,39.40
2018-09-05T18:07:07.232Z,39.40
2018-09-05T18:09:36.132Z,39.70
2018-09-05T18:12:05.335Z,39.90
2018-09-05T18:14:34.239Z,39.90
2018-09-05T18:17:02.833Z,39.90
2018-09-05T18:19:31.429Z,40.00
2018-09-05T18:22:00.019Z,40.00
2018-09-05T18:24:30.130Z,39.80
2018-09-05T18:26:59.267Z,39.90
2018-09-05T18:29:29.898Z,40.10
2018-09-05T18:31:58.502Z,40.00
2018-09-05T18:34:27.154Z,40.00
2018-09-05T18:36:55.821Z,40.10
2018-09-05T18:39:24.488Z,40.10
2018-09-05T18:41:53.113Z,40.30
2018-09-05T18:44:22.137Z,40.50
2018-09-05T18:46:52.483Z,40.30
2018-09-05T18:49:22.067Z,40.30
2018-09-05T18:51:50.535Z,40.40
2018-09-05T18:54:19.199Z,39.80
2018-09-05T18:56:48.384Z,40.50
2018-09-05T18:59:17.193Z,40.50
2018-09-05T19:01:46.120Z,40.70
2018-09-05T19:04:15.141Z,40.80
2018-09-05T19:06:44.076Z,40.80
2018-09-05T19:09:13.137Z,41.00
2018-09-05T19:11:41.971Z,41.10
2018-09-05T19:14:11.274Z,41.20
2018-09-05T19:16:40.422Z,41.40
2018-09-05T19:19:09.322Z,41.60
2018-09-05T19:21:38.440Z,41.70
2018-09-05T19:24:06.980Z,41.80
2018-09-05T19:26:36.038Z,42.00
2018-09-05T19:29:04.979Z,42.10
2018-09-05T19:31:34.355Z,42.20
2018-09-05T19:34:03.211Z,42.30
2018-09-05T19:36:32.389Z,42.40
2018-09-05T19:39:01.146Z,42.60
2018-09-05T19:41:30.000Z,42.60
2018-09-05T19:43:58.561Z,42.80
2018-09-05T19:46:27.119Z,43.00
2018-09-05T19:48:56.641Z,43.10
2018-09-05T19:51:25.168Z,43.10
2018-09-05T19:53:54.382Z,43.20
2018-09-05T19:56:22.928Z,43.40
2018-09-05T19:58:51.444Z,43.50
2018-09-05T20:01:19.983Z,43.50
2018-09-05T20:03:48.791Z,43.70
2018-09-05T20:06:17.416Z,43.70
2018-09-05T20:08:46.034Z,43.80
2018-09-05T20:11:14.648Z,44.00
2018-09-05T20:13:43.227Z,44.10
2018-09-05T20:16:11.775Z,44.30
2018-09-05T20:18:41.341Z,44.40
2018-09-05T20:21:09.869Z,44.50
2018-09-05T20:23:38.715Z,44.60
2018-09-05T20:26:07.596Z,44.70
2018-09-05T20:28:36.173Z,44.40
2018-09-05T20:31:05.333Z,44.70
2018-09-05T20:33:34.901Z,44.80
2018-09-05T20:36:03.493Z,45.60
2018-09-05T20:38:32.020Z,45.00
2018-09-05T20:41:00.607Z,45.10
2018-09-05T20:43:29.594Z,45.20
2018-09-05T20:45:58.396Z,45.40
2018-09-05T20:48:26.959Z,45.40
2018-09-05T20:50:55.480Z,45.40
2018-09-05T20:53:24.019Z,45.40
2018-09-05T20:55:52.567Z,45.40
2018-09-05T20:58:21.308Z,45.40
2018-09-05T21:00:49.810Z,45.60
2018-09-05T21:03:18.330Z,45.70
2018-09-05T21:05:46.991Z,46.00
2018-09-05T21:08:15.736Z,46.00
2018-09-05T21:10:44.739Z,45.90
2018-09-05T21:13:13.300Z,46.00
2018-09-05T21:15:41.826Z,46.00
2018-09-05T21:18:10.569Z,46.20
2018-09-05T21:20:40.706Z,46.70
2018-09-05T21:23:09.310Z,46.50
2018-09-05T21:25:38.256Z,46.70
2018-09-05T21:28:06.735Z,46.80
2018-09-05T21:30:35.382Z,46.80
2018-09-05T21:33:04.543Z,46.90
2018-09-05T21:35:33.727Z,46.90
2018-09-05T21:38:02.344Z,47.00
2018-09-05T21:40:30.867Z,47.10
2018-09-05T21:42:59.900Z,47.20
2018-09-05T21:45:28.508Z,47.30
2018-09-05T21:47:57.117Z,47.40
2018-09-05T21:50:25.596Z,47.40
2018-09-05T21:52:54.300Z,47.50
2018-09-05T21:55:22.852Z,47.70
2018-09-05T21:57:51.574Z,47.80
2018-09-05T22:00:20.051Z,47.90
2018-09-05T22:02:48.523Z,47.90
2018-09-05T22:05:17.122Z,48.00
2018-09-05T22:07:45.764Z,48.10
2018-09-05T22:10:14.471Z,48.20
2018-09-05T22:12:43.015Z,48.30
2018-09-05T22:15:11.532Z,48.20
2018-09-05T22:17:40.910Z,48.40
2018-09-05T22:20:09.788Z,48.40
2018-09-05T22:22:39.920Z,48.50
2018-09-05T22:25:09.010Z,48.60
2018-09-05T22:27:37.862Z,48.50
2018-09-05T22:30:06.501Z,48.50
2018-09-05T22:32:35.226Z,48.50
2018-09-05T22:35:03.966Z,48.50
2018-09-05T22:37:33.520Z,48.60
2018-09-05T22:40:02.010Z,48.60
2018-09-05T22:42:30.532Z,48.50
2018-09-05T22:45:10.423Z,48.70
2018-09-05T22:50:07.367Z,48.70
2018-09-05T22:52:55.513Z,48.80
2018-09-05T22:55:42.514Z,49.00
2018-09-05T23:00:24.967Z,49.20
2018-09-05T23:03:04.468Z,49.30
2018-09-05T23:07:54.396Z,49.40
2018-09-05T23:10:34.150Z,49.60
2018-09-05T23:14:17.524Z,49.70
2018-09-05T23:17:27.430Z,49.90
2018-09-05T23:22:08.584Z,50.20
2018-09-05T23:24:37.094Z,50.40
2018-09-05T23:27:06.062Z,50.60
2018-09-05T23:29:35.004Z,50.80
2018-09-05T23:32:03.547Z,50.80
2018-09-05T23:34:46.669Z,50.70
2018-09-05T23:37:15.814Z,50.60
2018-09-05T23:39:44.391Z,50.80
2018-09-05T23:42:13.342Z,50.70
2018-09-05T23:44:41.929Z,51.40
2018-09-05T23:47:10.397Z,50.80
2018-09-05T23:49:39.974Z,50.80
2018-09-05T23:52:08.673Z,50.80
2018-09-05T23:54:37.265Z,50.80
2018-09-05T23:57:06.447Z,50.90
2018-09-05T23:59:35.077Z,50.90
